createdAt,value
2023-04-02T00:20:12.306Z,92.55
2023-04-02T02:34:39.521Z,93.57
2023-04-02T03:04:21.619Z,97.44
2023-04-02T03:19:15.230Z,97.27
2023-04-02T03:34:12.005Z,97.59
2023-04-02T03:49:06.786Z,96.65
2023-04-02T04:03:58.532Z,96.15
2023-04-02T04:18:50.154Z,100.00
2023-04-02T04:33:39.979Z,100.00
2023-04-02T04:48:37.253Z,100.00
2023-04-02T05:03:39.860Z,100.00
2023-04-02T05:18:36.548Z,99.58
2023-04-02T05:33:27.543Z,100.00
2023-04-02T05:48:29.732Z,99.93
2023-04-02T06:03:33.628Z,99.54
2023-04-02T06:18:28.915Z,99.15
2023-04-02T06:33:20.042Z,98.43
2023-04-02T06:48:10.778Z,98.19
2023-04-02T07:03:01.511Z,97.87
2023-04-02T07:17:52.859Z,97.27
2023-04-02T07:32:43.966Z,96.04
2023-04-02T07:47:35.801Z,94.78
2023-04-02T08:02:26.930Z,92.62
2023-04-02T08:17:18.360Z,90.61
2023-04-02T08:32:09.823Z,88.61
2023-04-02T08:47:01.570Z,87.63
2023-04-02T09:02:03.145Z,84.14
2023-04-02T09:16:58.096Z,82.55
2023-04-02T09:31:50.751Z,79.19
2023-04-02T09:46:54.669Z,75.32
2023-04-02T10:01:54.398Z,72.79
2023-04-02T10:16:48.567Z,70.01
2023-04-02T10:47:12.108Z,71.02
2023-04-02T11:02:06.360Z,69.89
2023-04-02T11:16:58.712Z,69.93
2023-04-02T11:31:49.816Z,68.91
2023-04-02T12:02:05.421Z,66.58
2023-04-02T12:17:01.327Z,66.08
2023-04-02T12:31:51.231Z,66.65
2023-04-02T12:46:41.491Z,79.08
2023-04-02T13:01:30.209Z,83.99
2023-04-02T13:16:20.618Z,83.09
2023-04-02T13:31:10.673Z,88.23
2023-04-02T13:45:59.397Z,92.98
2023-04-02T14:00:50.301Z,94.70
2023-04-02T14:15:56.643Z,96.54
2023-04-02T14:31:07.705Z,97.41
2023-04-02T14:46:02.521Z,96.56
2023-04-02T15:01:07.021Z,96.82
2023-04-02T15:16:14.869Z,97.08
2023-04-02T15:46:29.478Z,98.88
2023-04-02T16:01:24.227Z,96.47
2023-04-02T16:16:30.447Z,93.82
2023-04-02T16:31:25.489Z,92.39
2023-04-02T16:46:39.329Z,91.76
2023-04-02T17:01:25.186Z,90.82
2023-04-02T17:16:18.078Z,87.58
2023-04-02T17:31:21.295Z,87.63
2023-04-02T17:46:21.261Z,86.39
2023-04-02T18:01:29.888Z,84.09
2023-04-02T18:16:39.259Z,82.13
2023-04-02T18:31:37.471Z,82.32
2023-04-02T18:46:30.445Z,77.46
2023-04-02T19:01:30.453Z,75.54
2023-04-02T19:16:46.654Z,73.57
2023-04-02T19:31:49.783Z,72.64
2023-04-02T19:46:44.506Z,68.72
2023-04-02T20:01:33.542Z,68.42
2023-04-02T21:01:09.874Z,62.46
2023-04-02T21:16:03.234Z,62.03
2023-04-02T21:30:52.776Z,62.52
2023-04-02T21:45:42.399Z,61.56
2023-04-02T22:00:33.163Z,61.77
2023-04-02T22:15:23.417Z,61.43
2023-04-02T22:30:14.970Z,60.45
2023-04-02T22:45:04.785Z,59.04
2023-04-02T22:59:54.991Z,59.27
2023-04-02T23:29:35.875Z,58.28
2023-04-02T23:44:26.737Z,58.80
